createdAt,value
2023-05-15T00:02:26.911Z,10.80
2023-05-15T00:05:29.946Z,11.95
2023-05-15T00:08:33.130Z,10.68
2023-05-15T00:11:36.278Z,11.80
2023-05-15T00:14:39.217Z,12.50
2023-05-15T00:17:42.356Z,10.10
2023-05-15T00:20:45.629Z,11.85
2023-05-15T00:23:48.902Z,9.02
2023-05-15T00:26:52.519Z,8.57
2023-05-15T00:29:55.818Z,11.52
2023-05-15T00:32:59.228Z,9.77
2023-05-15T00:36:02.405Z,9.55
2023-05-15T00:39:05.481Z,8.45
2023-05-15T00:42:09.411Z,9.40
2023-05-15T00:45:14.371Z,8.57
2023-05-15T00:48:18.405Z,9.60
2023-05-15T00:51:21.615Z,9.65
2023-05-15T00:54:25.292Z,8.35
2023-05-15T00:57:29.424Z,8.60
2023-05-15T01:00:34.104Z,9.20
2023-05-15T01:03:38.046Z,9.50
2023-05-15T01:06:41.451Z,7.32
2023-05-15T01:09:47.684Z,6.15
2023-05-15T01:12:54.427Z,7.63
2023-05-15T01:15:58.650Z,6.53
2023-05-15T01:19:02.261Z,6.30
2023-05-15T01:23:06.392Z,5.50
2023-05-15T01:26:15.559Z,6.18
2023-05-15T01:29:53.456Z,6.00
2023-05-15T01:33:26.305Z,6.78
2023-05-15T01:36:53.640Z,5.87
2023-05-15T01:40:01.484Z,5.93
2023-05-15T01:43:10.038Z,4.32
2023-05-15T01:46:20.000Z,5.22
2023-05-15T01:49:26.618Z,6.20
2023-05-15T01:52:34.017Z,5.27
2023-05-15T01:55:38.990Z,4.65
2023-05-15T01:58:44.652Z,4.60
2023-05-15T02:01:48.277Z,3.90
2023-05-15T02:04:52.944Z,4.05
2023-05-15T02:07:57.012Z,3.27
2023-05-15T02:11:01.747Z,4.80
2023-05-15T02:14:06.237Z,5.57
2023-05-15T02:17:09.598Z,4.07
2023-05-15T02:20:12.976Z,4.40
2023-05-15T02:23:16.051Z,3.77
2023-05-15T02:27:10.775Z,5.18
2023-05-15T02:30:38.576Z,5.78
2023-05-15T02:34:17.386Z,3.63
2023-05-15T02:37:28.640Z,5.20
2023-05-15T02:40:33.878Z,3.80
2023-05-15T02:43:37.632Z,5.03
2023-05-15T02:46:42.130Z,5.03
2023-05-15T02:49:49.310Z,4.82
2023-05-15T02:53:01.293Z,4.22
2023-05-15T02:56:05.030Z,4.77
2023-05-15T02:59:08.092Z,4.65
2023-05-15T03:02:11.251Z,4.72
2023-05-15T03:05:14.244Z,5.38
2023-05-15T03:08:17.501Z,6.47
2023-05-15T03:11:21.485Z,6.20
2023-05-15T03:14:24.959Z,3.55
2023-05-15T03:17:28.033Z,4.90
2023-05-15T03:20:31.285Z,5.13
2023-05-15T03:23:36.376Z,5.68
2023-05-15T03:26:42.574Z,6.23
2023-05-15T03:29:45.946Z,4.85
2023-05-15T03:32:49.266Z,4.68
2023-05-15T03:35:53.029Z,4.82
2023-05-15T03:38:56.074Z,4.57
2023-05-15T03:41:59.284Z,7.50
2023-05-15T03:45:02.234Z,4.85
2023-05-15T03:48:05.981Z,5.40
2023-05-15T03:51:08.972Z,4.60
2023-05-15T03:54:11.967Z,3.90
2023-05-15T03:57:14.807Z,5.47
2023-05-15T04:00:19.122Z,5.25
2023-05-15T04:03:24.360Z,5.82
2023-05-15T04:06:27.436Z,4.57
2023-05-15T04:09:31.500Z,6.20
2023-05-15T04:12:35.767Z,4.63
2023-05-15T04:15:38.896Z,4.40
2023-05-15T04:18:42.286Z,3.67
2023-05-15T04:21:45.831Z,6.57
2023-05-15T04:24:48.963Z,4.22
2023-05-15T04:27:52.254Z,5.40
2023-05-15T04:30:55.410Z,3.53
2023-05-15T04:33:58.740Z,3.35
2023-05-15T04:37:01.929Z,4.45
2023-05-15T04:40:09.137Z,4.72
2023-05-15T04:43:12.307Z,3.17
2023-05-15T04:46:15.244Z,3.67
2023-05-15T04:49:18.121Z,5.68
2023-05-15T04:52:21.114Z,6.22
2023-05-15T04:55:24.639Z,3.95
2023-05-15T04:58:28.193Z,4.80
2023-05-15T05:01:31.414Z,4.03
2023-05-15T05:04:34.390Z,2.60
2023-05-15T05:07:37.506Z,3.65
2023-05-15T05:10:41.147Z,3.42
2023-05-15T05:13:44.456Z,5.10
2023-05-15T05:16:51.497Z,3.90
2023-05-15T05:19:54.876Z,3.60
2023-05-15T05:22:57.797Z,4.05
2023-05-15T05:26:01.050Z,3.00
2023-05-15T05:29:04.576Z,2.83
2023-05-15T05:32:08.750Z,3.80
2023-05-15T05:35:12.092Z,2.67
2023-05-15T05:38:15.514Z,3.80
2023-05-15T05:41:18.458Z,2.85
2023-05-15T05:44:21.471Z,3.03
2023-05-15T05:47:24.543Z,2.53
2023-05-15T05:50:28.143Z,2.55
2023-05-15T05:53:31.517Z,4.20
2023-05-15T05:56:35.075Z,2.53
2023-05-15T05:59:38.325Z,2.20
2023-05-15T06:02:42.456Z,2.15
2023-05-15T06:05:46.374Z,2.38
2023-05-15T06:08:50.013Z,2.33
2023-05-15T06:11:53.257Z,2.72
2023-05-15T06:14:56.720Z,1.53
2023-05-15T06:17:59.967Z,1.67
2023-05-15T06:21:06.438Z,2.03
2023-05-15T06:24:09.594Z,1.83
2023-05-15T06:27:12.946Z,1.65
2023-05-15T06:30:16.381Z,1.63
2023-05-15T06:33:19.582Z,3.10
2023-05-15T06:36:23.245Z,2.45
2023-05-15T06:39:26.491Z,3.28
2023-05-15T06:42:29.981Z,2.40
2023-05-15T06:45:33.451Z,2.43
2023-05-15T06:48:37.073Z,4.13
2023-05-15T06:51:40.298Z,4.43
2023-05-15T06:54:43.784Z,2.10
2023-05-15T06:57:47.098Z,2.33
2023-05-15T07:00:50.365Z,3.13
2023-05-15T07:03:53.787Z,3.05
2023-05-15T07:06:58.522Z,3.33
2023-05-15T07:10:01.934Z,3.50
2023-05-15T07:13:05.662Z,3.30
2023-05-15T07:16:09.361Z,3.07
2023-05-15T07:19:13.602Z,2.50
2023-05-15T07:22:16.922Z,3.00
2023-05-15T07:25:20.140Z,1.73
2023-05-15T07:28:23.306Z,1.85
2023-05-15T07:31:26.625Z,2.47
2023-05-15T07:34:29.597Z,2.65
2023-05-15T07:37:32.967Z,2.42
2023-05-15T07:40:36.383Z,2.25
2023-05-15T07:43:39.682Z,2.70
2023-05-15T07:46:43.155Z,1.73
2023-05-15T07:49:46.574Z,2.47
2023-05-15T07:52:49.592Z,2.25
2023-05-15T07:55:52.603Z,1.80
2023-05-15T07:58:55.455Z,2.85
2023-05-15T08:01:58.708Z,3.83
2023-05-15T08:05:01.727Z,2.30
2023-05-15T08:08:05.697Z,2.42
2023-05-15T08:11:08.659Z,2.05
2023-05-15T08:14:13.808Z,2.50
2023-05-15T08:17:17.555Z,2.73
2023-05-15T08:20:20.976Z,2.35
2023-05-15T08:23:23.869Z,2.40
2023-05-15T08:26:27.396Z,2.53
2023-05-15T08:29:30.810Z,2.35
2023-05-15T08:32:34.050Z,1.97
2023-05-15T08:35:37.235Z,2.03
2023-05-15T08:38:40.527Z,2.88
2023-05-15T08:42:14.962Z,2.83
2023-05-15T08:45:19.267Z,2.67
2023-05-15T08:48:27.723Z,1.90
2023-05-15T08:51:31.054Z,2.38
2023-05-15T08:54:35.397Z,1.92
2023-05-15T08:57:39.356Z,1.95
2023-05-15T09:00:43.532Z,2.88
2023-05-15T09:03:47.195Z,2.23
2023-05-15T09:06:50.617Z,2.55
2023-05-15T09:09:55.845Z,1.73
2023-05-15T09:13:02.068Z,1.98
2023-05-15T09:16:07.393Z,1.40
2023-05-15T09:19:11.503Z,1.17
2023-05-15T09:22:23.384Z,1.75
2023-05-15T09:25:39.974Z,1.40
2023-05-15T09:28:43.794Z,1.20
2023-05-15T09:31:48.208Z,1.40
2023-05-15T09:34:51.759Z,2.87
2023-05-15T09:38:02.679Z,1.55
2023-05-15T09:41:07.564Z,1.30
2023-05-15T09:44:30.809Z,1.10
2023-05-15T09:47:34.263Z,1.50
2023-05-15T09:50:39.563Z,1.33
2023-05-15T09:53:42.823Z,2.05
2023-05-15T09:56:47.461Z,5.20
2023-05-15T09:59:50.817Z,3.20
2023-05-15T10:02:57.875Z,2.88
2023-05-15T10:06:02.206Z,3.47
2023-05-15T10:09:06.489Z,3.53
2023-05-15T10:12:10.036Z,1.90
2023-05-15T10:15:15.009Z,2.10
2023-05-15T10:18:21.970Z,1.40
2023-05-15T10:21:27.362Z,1.30
2023-05-15T10:24:32.940Z,1.48
2023-05-15T10:27:39.071Z,1.88
2023-05-15T10:30:42.693Z,1.63
2023-05-15T10:33:47.525Z,1.80
2023-05-15T10:36:51.576Z,2.07
2023-05-15T10:39:56.392Z,3.30
2023-05-15T10:43:03.273Z,2.53
2023-05-15T10:46:06.904Z,1.15
2023-05-15T10:49:10.436Z,1.50
2023-05-15T10:52:13.677Z,1.27
2023-05-15T10:55:18.039Z,1.52
2023-05-15T10:58:24.789Z,2.13
2023-05-15T11:01:32.653Z,2.42
2023-05-15T11:04:36.715Z,1.83
2023-05-15T11:07:40.006Z,3.43
2023-05-15T11:10:43.210Z,1.50
2023-05-15T11:14:10.779Z,2.92
2023-05-15T11:17:17.869Z,1.70
2023-05-15T11:20:35.165Z,2.25
2023-05-15T11:23:41.828Z,2.10
2023-05-15T11:26:44.902Z,1.58
2023-05-15T11:30:23.616Z,2.42
2023-05-15T11:33:31.840Z,2.15
2023-05-15T11:36:39.962Z,3.33
2023-05-15T11:39:44.640Z,2.00
2023-05-15T11:43:07.496Z,1.63
2023-05-15T11:46:12.953Z,1.65
2023-05-15T11:49:19.467Z,1.55
2023-05-15T11:52:25.021Z,1.23
2023-05-15T11:55:29.646Z,1.40
2023-05-15T11:58:33.127Z,2.10
2023-05-15T12:01:41.579Z,1.75
2023-05-15T12:04:45.087Z,2.72
2023-05-15T12:07:48.394Z,1.48
2023-05-15T12:10:51.964Z,1.30
2023-05-15T12:13:55.463Z,1.50
2023-05-15T12:17:05.107Z,1.60
2023-05-15T12:20:11.667Z,1.45
2023-05-15T12:23:17.367Z,1.38
2023-05-15T12:26:24.835Z,3.67
2023-05-15T12:29:28.765Z,1.40
2023-05-15T12:32:33.926Z,1.48
2023-05-15T12:35:41.538Z,1.50
2023-05-15T12:38:44.774Z,3.80
2023-05-15T12:41:50.313Z,1.20
2023-05-15T12:44:55.960Z,1.23
2023-05-15T12:47:59.605Z,1.55
2023-05-15T12:51:07.839Z,1.02
2023-05-15T12:54:21.295Z,1.30
2023-05-15T12:57:24.671Z,0.90
2023-05-15T13:00:31.042Z,1.20
2023-05-15T13:03:34.548Z,1.15
2023-05-15T13:06:46.803Z,1.23
2023-05-15T13:10:06.341Z,1.20
2023-05-15T13:13:09.442Z,2.03
2023-05-15T13:16:24.838Z,1.13
2023-05-15T13:19:27.718Z,0.95
2023-05-15T13:22:30.862Z,1.08
2023-05-15T13:25:34.271Z,1.40
2023-05-15T13:28:37.242Z,1.20
2023-05-15T13:31:40.283Z,0.90
2023-05-15T13:34:43.568Z,1.00
2023-05-15T13:37:47.550Z,1.42
2023-05-15T13:40:50.857Z,1.33
2023-05-15T13:43:54.157Z,0.87
2023-05-15T13:46:57.162Z,1.00
2023-05-15T13:50:00.190Z,1.00
2023-05-15T13:53:03.282Z,0.80
2023-05-15T13:56:06.514Z,0.70
2023-05-15T13:59:09.413Z,0.60
2023-05-15T14:02:12.535Z,1.17
2023-05-15T14:05:16.586Z,1.10
2023-05-15T14:08:19.795Z,1.10
2023-05-15T14:11:22.989Z,1.10
2023-05-15T14:14:26.460Z,1.43
2023-05-15T14:17:29.607Z,0.77
2023-05-15T14:20:32.881Z,1.45
2023-05-15T14:23:35.989Z,0.90
2023-05-15T14:26:39.012Z,0.88
2023-05-15T14:29:42.127Z,1.63
2023-05-15T14:32:45.554Z,1.05
2023-05-15T14:35:48.497Z,1.27
2023-05-15T14:38:51.940Z,1.10
2023-05-15T14:41:56.005Z,0.90
2023-05-15T14:44:59.247Z,0.60
2023-05-15T14:48:02.296Z,0.95
2023-05-15T14:51:06.136Z,0.80
2023-05-15T14:54:09.497Z,1.35
2023-05-15T14:57:12.777Z,0.85
2023-05-15T15:00:16.513Z,1.17
2023-05-15T15:03:20.859Z,1.30
2023-05-15T15:06:24.109Z,1.10
2023-05-15T15:09:28.909Z,1.40
2023-05-15T15:12:32.534Z,1.08
2023-05-15T15:15:37.960Z,1.10
2023-05-15T15:18:41.351Z,1.30
2023-05-15T15:21:45.247Z,1.30
2023-05-15T15:24:51.168Z,2.85
2023-05-15T15:27:54.494Z,1.17
2023-05-15T15:30:57.455Z,1.90
2023-05-15T15:34:02.352Z,1.58
2023-05-15T15:37:06.781Z,1.35
2023-05-15T15:40:09.849Z,0.80
2023-05-15T15:43:13.140Z,0.80
2023-05-15T15:46:16.492Z,0.83
2023-05-15T15:49:19.757Z,1.05
2023-05-15T15:52:22.836Z,1.10
2023-05-15T15:55:28.052Z,0.85
2023-05-15T15:58:31.147Z,0.85
2023-05-15T16:01:34.368Z,0.63
2023-05-15T16:04:37.600Z,0.98
2023-05-15T16:10:58.226Z,1.02
2023-05-15T16:14:01.764Z,0.82
2023-05-15T16:17:05.605Z,0.70
2023-05-15T16:20:10.168Z,0.88
2023-05-15T16:23:15.719Z,1.20
2023-05-15T16:26:18.855Z,0.75
2023-05-15T16:29:25.455Z,0.77
2023-05-15T16:32:29.151Z,0.60
2023-05-15T16:35:32.420Z,0.80
2023-05-15T16:38:35.502Z,0.70
2023-05-15T16:41:38.796Z,1.88
2023-05-15T16:44:41.637Z,0.80
2023-05-15T16:47:44.813Z,1.13
2023-05-15T16:50:48.291Z,0.70
2023-05-15T16:53:54.012Z,2.15
2023-05-15T16:56:57.166Z,0.65
2023-05-15T17:00:00.303Z,0.70
2023-05-15T17:03:05.160Z,0.70
2023-05-15T17:06:08.442Z,0.47
2023-05-15T17:09:11.680Z,1.27
2023-05-15T17:12:15.056Z,0.40
2023-05-15T17:15:18.295Z,0.50
2023-05-15T17:18:22.196Z,0.70
2023-05-15T17:21:25.260Z,1.65
2023-05-15T17:24:42.300Z,0.88
2023-05-15T17:27:52.390Z,0.60
2023-05-15T17:30:55.918Z,0.88
2023-05-15T17:33:59.045Z,1.30
2023-05-15T17:37:02.607Z,0.80
2023-05-15T17:40:06.470Z,1.67
2023-05-15T17:43:10.519Z,0.82
2023-05-15T17:46:13.891Z,1.25
2023-05-15T17:49:17.380Z,0.77
2023-05-15T17:52:20.480Z,0.82
2023-05-15T17:55:23.575Z,0.75
2023-05-15T17:58:27.093Z,0.73
2023-05-15T18:01:30.989Z,1.13
2023-05-15T18:04:34.561Z,1.20
2023-05-15T18:07:37.728Z,1.00
2023-05-15T18:10:40.929Z,1.30
2023-05-15T18:13:44.433Z,1.27
2023-05-15T18:16:47.369Z,1.40
2023-05-15T18:19:50.721Z,1.40
2023-05-15T18:22:53.921Z,1.67
2023-05-15T18:25:57.315Z,1.65
2023-05-15T18:29:00.937Z,2.33
2023-05-15T18:32:04.534Z,1.55
2023-05-15T18:35:08.691Z,1.20
2023-05-15T18:38:11.937Z,1.73
2023-05-15T18:41:14.990Z,0.93
2023-05-15T18:44:18.119Z,1.20
2023-05-15T18:47:21.470Z,0.80
2023-05-15T18:50:25.076Z,0.77
2023-05-15T18:53:28.160Z,0.80
2023-05-15T18:56:31.491Z,5.28
2023-05-15T18:59:34.997Z,0.90
2023-05-15T19:02:40.367Z,1.23
2023-05-15T19:05:43.376Z,0.87
2023-05-15T19:08:48.172Z,1.10
2023-05-15T19:11:52.486Z,3.10
2023-05-15T19:14:56.186Z,0.88
2023-05-15T19:17:59.575Z,0.88
2023-05-15T19:21:02.879Z,1.13
2023-05-15T19:24:06.817Z,0.90
2023-05-15T19:27:10.193Z,1.23
2023-05-15T19:30:13.623Z,0.88
2023-05-15T19:33:18.252Z,0.85
2023-05-15T19:36:22.310Z,0.60
2023-05-15T19:39:28.339Z,0.80
2023-05-15T19:42:31.853Z,0.80
2023-05-15T19:45:34.768Z,1.05
2023-05-15T19:48:37.834Z,1.27
2023-05-15T19:51:46.525Z,1.87
2023-05-15T19:54:49.533Z,1.30
2023-05-15T19:57:55.818Z,0.98
2023-05-15T20:00:59.190Z,1.15
2023-05-15T20:04:02.572Z,2.25
2023-05-15T20:07:05.810Z,0.80
2023-05-15T20:10:09.588Z,0.93
2023-05-15T20:18:02.347Z,1.23
2023-05-15T20:21:06.623Z,0.85
2023-05-15T20:24:10.450Z,0.90
2023-05-15T20:27:13.340Z,1.45
2023-05-15T20:30:16.549Z,1.98
2023-05-15T20:33:19.850Z,1.08
2023-05-15T20:36:25.682Z,1.15
2023-05-15T20:39:28.784Z,2.50
2023-05-15T20:42:34.438Z,0.80
2023-05-15T20:45:38.004Z,1.02
2023-05-15T20:48:41.324Z,1.38
2023-05-15T20:51:44.696Z,1.48
2023-05-15T20:54:47.807Z,0.90
2023-05-15T20:57:50.775Z,0.90
2023-05-15T21:00:53.674Z,1.40
2023-05-15T21:03:56.832Z,1.00
2023-05-15T21:06:59.805Z,1.20
2023-05-15T21:10:02.981Z,1.03
2023-05-15T21:13:06.165Z,1.73
2023-05-15T21:16:09.681Z,1.13
2023-05-15T21:19:13.004Z,1.00
2023-05-15T21:22:16.203Z,1.48
2023-05-15T21:25:19.384Z,1.70
2023-05-15T21:28:22.401Z,1.27
2023-05-15T21:31:29.043Z,1.67
2023-05-15T21:34:32.688Z,1.63
2023-05-15T21:37:35.675Z,1.77
2023-05-15T21:40:39.234Z,1.20
2023-05-15T21:43:42.473Z,1.70
2023-05-15T21:46:45.511Z,1.80
2023-05-15T21:49:48.941Z,2.33
2023-05-15T21:52:52.356Z,1.63
2023-05-15T21:55:59.342Z,1.60
2023-05-15T21:59:02.452Z,1.02
2023-05-15T22:02:06.499Z,1.92
2023-05-15T22:05:09.839Z,1.40
2023-05-15T22:08:14.151Z,1.67
2023-05-15T22:11:17.546Z,1.10
2023-05-15T22:14:20.613Z,1.20
2023-05-15T22:17:24.054Z,1.45
2023-05-15T22:20:27.170Z,1.70
2023-05-15T22:23:30.252Z,1.63
2023-05-15T22:26:33.505Z,1.37
2023-05-15T22:29:36.741Z,1.42
2023-05-15T22:32:41.384Z,1.50
2023-05-15T22:35:44.608Z,1.20
2023-05-15T22:38:47.536Z,2.50
2023-05-15T22:41:50.806Z,1.73
2023-05-15T22:44:57.952Z,1.38
2023-05-15T22:48:02.044Z,1.15
2023-05-15T22:51:05.317Z,1.00
2023-05-15T22:54:08.220Z,1.40
2023-05-15T22:57:11.366Z,1.27
2023-05-15T23:00:15.116Z,1.80
2023-05-15T23:03:18.199Z,1.20
2023-05-15T23:06:21.442Z,1.02
2023-05-15T23:09:24.351Z,1.10
2023-05-15T23:12:27.789Z,1.17
2023-05-15T23:15:30.908Z,1.27
2023-05-15T23:18:34.013Z,1.40
2023-05-15T23:21:38.057Z,1.30
2023-05-15T23:24:41.359Z,1.10
2023-05-15T23:27:44.821Z,1.30
2023-05-15T23:30:48.321Z,1.15
2023-05-15T23:33:51.954Z,1.30
2023-05-15T23:36:54.844Z,1.38
2023-05-15T23:39:57.909Z,1.00
2023-05-15T23:43:01.361Z,1.00
2023-05-15T23:46:04.453Z,0.85
2023-05-15T23:49:07.817Z,1.25
2023-05-15T23:52:14.579Z,1.10
2023-05-15T23:55:17.584Z,1.50
2023-05-15T23:58:21.582Z,1.13
